createdAt,value
2018-07-26T00:00:34.498Z,4.60
2018-07-26T00:03:03.067Z,4.30
2018-07-26T00:05:31.408Z,5.10
2018-07-26T00:07:59.725Z,4.80
2018-07-26T00:10:28.209Z,4.90
2018-07-26T00:12:56.522Z,5.10
2018-07-26T00:15:24.851Z,5.23
2018-07-26T00:17:53.144Z,4.73
2018-07-26T00:20:21.704Z,3.93
2018-07-26T00:22:50.067Z,4.93
2018-07-26T00:25:18.464Z,4.87
2018-07-26T00:27:46.770Z,4.70
2018-07-26T00:30:15.082Z,4.90
2018-07-26T00:32:43.360Z,5.77
2018-07-26T00:35:11.671Z,4.40
2018-07-26T00:37:39.963Z,5.20
2018-07-26T00:40:08.360Z,5.00
2018-07-26T00:42:36.770Z,5.53
2018-07-26T00:45:05.300Z,5.07
2018-07-26T00:47:33.600Z,5.10
2018-07-26T00:50:01.977Z,4.53
2018-07-26T00:52:30.277Z,3.83
2018-07-26T00:54:58.691Z,4.50
2018-07-26T00:57:27.041Z,4.80
2018-07-26T00:59:55.444Z,4.60
2018-07-26T01:02:23.762Z,4.90
2018-07-26T01:04:52.081Z,4.90
2018-07-26T01:07:20.555Z,4.90
2018-07-26T01:09:48.970Z,5.00
2018-07-26T01:12:17.258Z,4.47
2018-07-26T01:14:45.571Z,4.57
2018-07-26T01:17:14.066Z,4.40
2018-07-26T01:19:42.406Z,4.57
2018-07-26T01:22:11.159Z,4.50
2018-07-26T01:24:39.471Z,4.70
2018-07-26T01:27:07.787Z,4.50
2018-07-26T01:29:36.121Z,5.63
2018-07-26T01:32:04.437Z,4.87
2018-07-26T01:34:32.763Z,4.83
2018-07-26T01:37:01.073Z,4.10
2018-07-26T01:39:29.448Z,4.57
2018-07-26T01:41:57.715Z,4.83
2018-07-26T01:44:26.264Z,4.43
2018-07-26T01:46:54.571Z,4.80
2018-07-26T01:49:22.856Z,5.00
2018-07-26T01:51:51.191Z,5.00
2018-07-26T01:54:19.504Z,4.20
2018-07-26T01:56:47.809Z,4.57
2018-07-26T01:59:16.136Z,4.63
2018-07-26T02:01:44.486Z,4.13
2018-07-26T02:04:12.786Z,4.93
2018-07-26T02:06:41.097Z,4.80
2018-07-26T02:09:09.900Z,4.80
2018-07-26T02:11:38.221Z,4.80
2018-07-26T02:14:10.821Z,4.43
2018-07-26T02:16:39.156Z,4.57
2018-07-26T02:19:07.661Z,4.43
2018-07-26T02:21:36.045Z,4.30
2018-07-26T02:24:04.350Z,4.20
2018-07-26T02:26:32.668Z,3.80
2018-07-26T02:29:01.560Z,3.70
2018-07-26T02:31:30.097Z,3.83
2018-07-26T02:33:58.401Z,4.00
2018-07-26T02:36:26.781Z,4.93
2018-07-26T02:38:55.069Z,4.20
2018-07-26T02:41:23.372Z,3.97
2018-07-26T02:43:51.667Z,4.17
2018-07-26T02:46:19.990Z,4.03
2018-07-26T02:48:48.281Z,4.37
2018-07-26T02:51:16.590Z,4.13
2018-07-26T02:53:44.877Z,4.50
2018-07-26T02:56:13.180Z,4.03
2018-07-26T02:58:41.481Z,4.40
2018-07-26T03:01:09.819Z,3.83
2018-07-26T03:03:38.109Z,4.53
2018-07-26T03:06:06.433Z,4.20
2018-07-26T03:08:34.708Z,4.03
2018-07-26T03:11:03.593Z,4.13
2018-07-26T03:13:31.874Z,4.80
2018-07-26T03:16:00.192Z,4.03
2018-07-26T03:18:28.537Z,4.30
2018-07-26T03:20:56.916Z,4.80
2018-07-26T03:23:25.207Z,3.73
2018-07-26T03:25:53.569Z,4.50
2018-07-26T03:28:21.880Z,3.93
2018-07-26T03:30:50.166Z,3.97
2018-07-26T03:33:18.472Z,4.80
2018-07-26T03:35:46.758Z,4.33
2018-07-26T03:38:15.069Z,4.63
2018-07-26T03:40:43.357Z,4.50
2018-07-26T03:43:11.668Z,4.13
2018-07-26T03:45:39.973Z,4.87
2018-07-26T03:48:08.283Z,4.00
2018-07-26T03:50:36.570Z,4.03
2018-07-26T03:53:04.883Z,4.57
2018-07-26T03:55:33.180Z,4.13
2018-07-26T03:58:01.513Z,4.27
2018-07-26T04:00:29.893Z,4.57
2018-07-26T04:02:58.237Z,4.30
2018-07-26T04:05:26.585Z,3.87
2018-07-26T04:07:54.893Z,4.40
2018-07-26T04:10:23.178Z,4.27
2018-07-26T04:12:51.692Z,4.90
2018-07-26T04:15:20.049Z,4.70
2018-07-26T04:17:52.947Z,4.90
2018-07-26T04:20:21.412Z,4.97
2018-07-26T04:22:49.827Z,4.17
2018-07-26T04:25:18.126Z,4.93
2018-07-26T04:27:46.436Z,4.20
2018-07-26T04:30:14.881Z,4.20
2018-07-26T04:32:43.332Z,9.20
2018-07-26T04:35:11.685Z,11.33
2018-07-26T04:37:40.002Z,14.40
2018-07-26T04:40:08.449Z,5.50
2018-07-26T04:42:36.794Z,4.80
2018-07-26T04:45:05.362Z,4.90
2018-07-26T04:47:33.684Z,4.20
2018-07-26T04:50:02.053Z,5.87
2018-07-26T04:52:30.412Z,6.30
2018-07-26T04:54:58.744Z,7.30
2018-07-26T04:57:27.044Z,4.87
2018-07-26T04:59:55.356Z,5.37
2018-07-26T05:02:23.838Z,4.87
2018-07-26T05:04:52.239Z,4.83
2018-07-26T05:07:20.661Z,4.30
2018-07-26T05:09:48.985Z,3.73
2018-07-26T05:12:17.289Z,4.17
2018-07-26T05:14:45.758Z,4.57
2018-07-26T05:17:14.048Z,4.43
2018-07-26T05:19:42.524Z,5.03
2018-07-26T05:22:10.839Z,4.30
2018-07-26T05:24:45.673Z,4.90
2018-07-26T05:27:13.970Z,4.37
2018-07-26T05:29:42.281Z,4.73
2018-07-26T05:32:10.581Z,4.93
2018-07-26T05:34:38.929Z,4.50
2018-07-26T05:37:07.239Z,4.53
2018-07-26T05:39:35.682Z,4.77
2018-07-26T05:42:03.989Z,4.40
2018-07-26T05:44:32.337Z,3.93
2018-07-26T05:47:00.643Z,3.87
2018-07-26T05:49:28.972Z,5.30
2018-07-26T05:51:57.280Z,4.13
2018-07-26T05:54:25.634Z,4.47
2018-07-26T05:56:53.920Z,3.90
2018-07-26T05:59:22.272Z,4.50
2018-07-26T06:01:50.605Z,3.50
2018-07-26T06:04:19.006Z,3.80
2018-07-26T06:06:47.504Z,3.50
2018-07-26T06:09:15.848Z,3.90
2018-07-26T06:11:44.260Z,3.63
2018-07-26T06:14:17.760Z,3.17
2018-07-26T06:16:50.987Z,4.07
2018-07-26T06:19:49.109Z,3.93
2018-07-26T06:22:29.258Z,4.07
2018-07-26T06:25:08.419Z,4.00
2018-07-26T06:27:36.704Z,4.60
2018-07-26T06:30:06.542Z,3.60
2018-07-26T06:32:34.872Z,3.97
2018-07-26T06:35:03.284Z,3.70
2018-07-26T06:37:32.917Z,3.40
2018-07-26T06:40:01.313Z,3.90
2018-07-26T06:42:33.786Z,3.80
2018-07-26T06:45:12.355Z,3.43
2018-07-26T06:47:51.091Z,4.30
2018-07-26T06:50:24.135Z,3.80
2018-07-26T06:53:03.147Z,3.60
2018-07-26T06:55:38.488Z,3.80
2018-07-26T06:58:13.213Z,3.73
2018-07-26T07:00:53.053Z,3.80
2018-07-26T07:03:36.047Z,4.23
2018-07-26T07:06:14.415Z,4.70
2018-07-26T07:08:49.272Z,4.40
2018-07-26T07:11:27.246Z,4.27
2018-07-26T07:14:07.836Z,4.20
2018-07-26T07:16:43.231Z,4.23
2018-07-26T07:19:22.215Z,4.90
2018-07-26T07:21:59.004Z,4.70
2018-07-26T07:24:34.829Z,4.50
2018-07-26T07:27:09.654Z,4.07
2018-07-26T07:29:42.033Z,4.40
2018-07-26T07:32:18.750Z,4.10
2018-07-26T07:37:34.889Z,4.10
2018-07-26T07:40:13.555Z,3.97
2018-07-26T07:48:07.985Z,4.60
2018-07-26T07:50:42.918Z,3.00
2018-07-26T07:53:15.087Z,3.90
2018-07-26T07:55:49.422Z,3.83
2018-07-26T07:58:23.193Z,3.60
2018-07-26T08:00:55.501Z,3.03
2018-07-26T08:03:33.738Z,2.90
2018-07-26T08:06:08.378Z,3.17
2018-07-26T08:08:51.765Z,3.63
2018-07-26T08:11:30.108Z,3.60
2018-07-26T08:14:10.852Z,3.13
2018-07-26T08:16:43.859Z,3.03
2018-07-26T08:19:25.027Z,3.57
2018-07-26T08:22:07.162Z,3.70
2018-07-26T08:24:42.147Z,3.50
2018-07-26T08:27:19.522Z,2.90
2018-07-26T08:29:52.105Z,3.33
2018-07-26T08:32:33.068Z,3.73
2018-07-26T08:35:06.407Z,3.00
2018-07-26T08:37:42.012Z,2.83
2018-07-26T08:40:20.539Z,3.00
2018-07-26T08:43:00.469Z,2.77
2018-07-26T08:45:44.942Z,3.77
2018-07-26T08:51:03.861Z,3.20
2018-07-26T08:53:39.568Z,3.30
2018-07-26T08:56:18.561Z,3.23
2018-07-26T08:58:53.297Z,3.20
2018-07-26T09:01:33.722Z,2.90
2018-07-26T09:04:12.211Z,3.00
2018-07-26T09:09:25.246Z,2.60
2018-07-26T09:12:05.721Z,2.60
2018-07-26T09:14:44.113Z,2.47
2018-07-26T09:17:17.545Z,2.50
2018-07-26T09:19:54.130Z,2.97
2018-07-26T09:22:31.597Z,2.60
2018-07-26T09:25:09.758Z,2.40
2018-07-26T09:27:49.006Z,2.90
2018-07-26T09:30:27.629Z,2.60
2018-07-26T09:33:11.371Z,2.30
2018-07-26T09:35:46.699Z,2.10
2018-07-26T09:38:21.564Z,2.20
2018-07-26T09:40:56.640Z,2.00
2018-07-26T09:46:20.084Z,2.90
2018-07-26T09:48:58.517Z,2.07
2018-07-26T09:51:32.888Z,1.83
2018-07-26T09:54:10.330Z,2.07
2018-07-26T09:56:43.962Z,2.30
2018-07-26T09:59:21.861Z,2.10
2018-07-26T10:01:53.008Z,2.87
2018-07-26T10:04:30.284Z,1.77
2018-07-26T10:07:00.744Z,2.00
2018-07-26T10:09:37.897Z,1.53
2018-07-26T10:15:26.176Z,1.70
2018-07-26T10:18:00.174Z,1.60
2018-07-26T10:20:39.180Z,1.90
2018-07-26T10:23:11.844Z,3.67
2018-07-26T10:25:50.122Z,1.60
2018-07-26T10:28:28.976Z,1.60
2018-07-26T10:31:06.623Z,1.67
2018-07-26T10:33:38.688Z,1.90
2018-07-26T10:36:16.773Z,1.80
2018-07-26T10:38:57.583Z,1.70
2018-07-26T10:44:10.380Z,1.80
2018-07-26T10:46:48.180Z,1.83
2018-07-26T10:49:24.429Z,1.90
2018-07-26T10:51:56.996Z,1.57
2018-07-26T10:54:34.770Z,2.17
2018-07-26T11:00:00.230Z,1.90
2018-07-26T11:02:38.325Z,2.00
2018-07-26T11:07:54.486Z,1.80
2018-07-26T11:10:30.807Z,2.23
2018-07-26T11:13:03.108Z,2.00
2018-07-26T11:15:44.070Z,2.10
2018-07-26T11:18:16.052Z,2.30
2018-07-26T11:21:04.961Z,2.23
2018-07-26T11:23:41.750Z,2.10
2018-07-26T11:26:24.169Z,2.30
2018-07-26T11:28:56.580Z,1.87
2018-07-26T11:34:27.236Z,2.20
2018-07-26T11:37:06.349Z,1.90
2018-07-26T11:45:15.451Z,2.00
2018-07-26T11:47:52.911Z,2.37
2018-07-26T11:50:33.842Z,1.90
2018-07-26T11:53:05.377Z,1.73
2018-07-26T11:55:33.697Z,1.77
2018-07-26T11:58:02.179Z,2.40
2018-07-26T12:00:30.632Z,1.97
2018-07-26T12:02:58.968Z,2.43
2018-07-26T12:05:27.300Z,2.40
2018-07-26T12:07:55.616Z,2.40
2018-07-26T12:10:23.924Z,2.10
2018-07-26T12:12:52.207Z,2.43
2018-07-26T12:15:20.795Z,2.10
2018-07-26T12:17:49.124Z,2.60
2018-07-26T12:20:17.501Z,2.67
2018-07-26T12:22:45.858Z,2.07
2018-07-26T12:25:14.820Z,2.23
2018-07-26T12:27:43.141Z,2.60
2018-07-26T12:30:11.538Z,2.97
2018-07-26T12:32:39.849Z,2.27
2018-07-26T12:35:08.156Z,2.40
2018-07-26T12:37:36.480Z,2.23
2018-07-26T12:40:05.141Z,2.07
2018-07-26T12:42:33.535Z,2.40
2018-07-26T12:45:01.873Z,2.50
2018-07-26T12:47:30.217Z,2.30
2018-07-26T12:49:58.964Z,2.27
2018-07-26T12:52:27.431Z,1.90
2018-07-26T12:54:55.873Z,1.90
2018-07-26T12:57:24.428Z,2.20
2018-07-26T12:59:52.785Z,1.97
2018-07-26T13:02:21.238Z,2.17
2018-07-26T13:04:49.545Z,2.23
2018-07-26T13:07:17.891Z,2.97
2018-07-26T13:09:46.253Z,2.20
2018-07-26T13:12:14.623Z,2.30
2018-07-26T13:14:43.280Z,2.17
2018-07-26T13:17:11.913Z,2.00
2018-07-26T13:19:41.186Z,1.93
2018-07-26T13:22:09.520Z,2.17
2018-07-26T13:24:37.817Z,1.90
2018-07-26T13:27:06.519Z,2.00
2018-07-26T13:29:35.165Z,2.07
2018-07-26T13:32:03.649Z,1.50
2018-07-26T13:34:31.933Z,1.83
2018-07-26T13:37:01.204Z,1.90
2018-07-26T13:39:29.501Z,1.80
2018-07-26T13:41:57.999Z,1.77
2018-07-26T13:44:26.348Z,2.13
2018-07-26T13:46:54.688Z,1.90
2018-07-26T13:49:22.993Z,1.80
2018-07-26T13:51:51.504Z,2.07
2018-07-26T13:54:19.789Z,1.83
2018-07-26T13:56:48.114Z,2.10
2018-07-26T13:59:16.509Z,1.97
2018-07-26T14:01:44.868Z,2.10
2018-07-26T14:04:13.243Z,1.93
2018-07-26T14:06:41.527Z,1.70
2018-07-26T14:09:11.200Z,1.60
2018-07-26T14:11:39.753Z,1.70
2018-07-26T14:14:08.179Z,1.70
2018-07-26T14:16:36.471Z,1.97
2018-07-26T14:19:10.185Z,2.30
2018-07-26T14:21:38.609Z,2.00
2018-07-26T14:24:12.428Z,2.47
2018-07-26T14:26:40.865Z,2.37
2018-07-26T14:29:09.180Z,1.77
2018-07-26T14:31:37.509Z,2.30
2018-07-26T14:34:05.919Z,1.63
2018-07-26T14:36:34.216Z,1.93
2018-07-26T14:39:02.719Z,1.70
2018-07-26T14:41:31.005Z,2.20
2018-07-26T14:43:59.350Z,1.80
2018-07-26T14:46:27.741Z,1.97
2018-07-26T14:48:56.089Z,1.90
2018-07-26T14:51:24.472Z,1.80
2018-07-26T14:53:52.960Z,1.67
2018-07-26T14:56:21.246Z,2.10
2018-07-26T14:58:49.685Z,2.00
2018-07-26T15:01:18.028Z,2.20
2018-07-26T15:03:46.417Z,2.07
2018-07-26T15:06:14.742Z,2.07
2018-07-26T15:08:43.365Z,2.37
2018-07-26T15:11:11.684Z,2.17
2018-07-26T15:13:40.000Z,2.10
2018-07-26T15:16:08.348Z,2.70
2018-07-26T15:18:38.792Z,2.27
2018-07-26T15:21:07.093Z,1.97
2018-07-26T15:23:35.635Z,2.10
2018-07-26T15:26:03.946Z,2.20
2018-07-26T15:28:32.395Z,2.23
2018-07-26T15:31:00.772Z,1.80
2018-07-26T15:33:29.060Z,2.47
2018-07-26T15:35:57.373Z,2.50
2018-07-26T15:38:25.665Z,1.90
2018-07-26T15:40:53.976Z,2.10
2018-07-26T15:43:22.399Z,1.90
2018-07-26T15:45:50.708Z,2.10
2018-07-26T15:48:19.000Z,2.10
2018-07-26T15:50:47.476Z,2.10
2018-07-26T15:53:15.777Z,1.90
2018-07-26T15:55:44.254Z,2.23
2018-07-26T15:58:13.531Z,2.07
2018-07-26T16:00:41.928Z,2.10
2018-07-26T16:03:10.477Z,1.97
2018-07-26T16:05:39.284Z,1.90
2018-07-26T16:08:07.582Z,2.10
2018-07-26T16:10:35.948Z,1.70
2018-07-26T16:13:04.341Z,2.00
2018-07-26T16:15:32.659Z,1.90
2018-07-26T16:18:01.071Z,2.47
2018-07-26T16:20:29.558Z,2.23
2018-07-26T16:22:57.868Z,2.13
2018-07-26T16:25:26.201Z,2.00
2018-07-26T16:27:54.793Z,2.13
2018-07-26T16:30:23.138Z,2.20
2018-07-26T16:32:51.448Z,2.43
2018-07-26T16:35:19.788Z,2.13
2018-07-26T16:37:48.167Z,2.83
2018-07-26T16:40:16.610Z,2.53
2018-07-26T16:42:44.935Z,2.30
2018-07-26T16:45:13.280Z,2.53
2018-07-26T16:47:41.561Z,2.20
2018-07-26T16:50:10.102Z,2.23
2018-07-26T16:52:38.413Z,2.23
2018-07-26T16:55:06.725Z,1.93
2018-07-26T16:57:35.157Z,2.40
2018-07-26T17:00:03.481Z,2.23
2018-07-26T17:02:31.837Z,2.30
2018-07-26T17:05:00.329Z,2.40
2018-07-26T17:07:28.646Z,2.80
2018-07-26T17:09:57.085Z,2.70
2018-07-26T17:12:25.528Z,2.20
2018-07-26T17:14:53.845Z,2.80
2018-07-26T17:17:22.251Z,2.37
2018-07-26T17:19:50.604Z,2.70
2018-07-26T17:22:18.967Z,2.67
2018-07-26T17:24:47.977Z,2.17
2018-07-26T17:27:16.294Z,2.53
2018-07-26T17:29:44.580Z,2.77
2018-07-26T17:32:12.893Z,2.47
2018-07-26T17:34:41.182Z,3.07
2018-07-26T17:37:09.489Z,2.67
2018-07-26T17:39:37.932Z,2.77
2018-07-26T17:42:06.398Z,2.37
2018-07-26T17:44:34.711Z,2.63
2018-07-26T17:47:03.033Z,3.23
2018-07-26T17:49:31.342Z,2.23
2018-07-26T17:51:59.669Z,2.63
2018-07-26T17:54:27.962Z,3.10
2018-07-26T17:56:56.694Z,3.43
2018-07-26T17:59:24.961Z,2.43
2018-07-26T18:01:53.343Z,3.10
2018-07-26T18:04:21.669Z,3.20
2018-07-26T18:06:50.112Z,3.47
2018-07-26T18:09:18.473Z,2.87
2018-07-26T18:11:46.788Z,2.77
2018-07-26T18:14:15.221Z,2.90
2018-07-26T18:16:43.543Z,2.60
2018-07-26T18:19:11.840Z,2.67
2018-07-26T18:21:40.133Z,3.10
2018-07-26T18:24:08.549Z,2.87
2018-07-26T18:26:36.829Z,2.70
2018-07-26T18:29:05.217Z,2.53
2018-07-26T18:31:33.681Z,3.03
2018-07-26T18:34:01.969Z,2.87
2018-07-26T18:36:30.268Z,2.90
2018-07-26T18:38:58.624Z,2.60
2018-07-26T18:41:26.912Z,2.97
2018-07-26T18:43:55.314Z,3.17
2018-07-26T18:46:23.564Z,2.20
2018-07-26T18:48:51.936Z,2.63
2018-07-26T18:51:20.248Z,2.67
2018-07-26T18:53:48.559Z,3.00
2018-07-26T18:56:16.867Z,2.70
2018-07-26T18:58:45.440Z,3.07
2018-07-26T19:01:13.786Z,2.60
2018-07-26T19:03:42.197Z,2.60
2018-07-26T19:06:10.501Z,3.03
2018-07-26T19:08:38.870Z,2.93
2018-07-26T19:11:07.306Z,3.30
2018-07-26T19:13:35.630Z,2.53
2018-07-26T19:16:04.034Z,3.03
2018-07-26T19:18:32.465Z,3.20
2018-07-26T19:21:00.822Z,3.00
2018-07-26T19:23:29.305Z,3.10
2018-07-26T19:25:58.094Z,2.80
2018-07-26T19:28:26.451Z,2.90
2018-07-26T19:30:54.784Z,2.80
2018-07-26T19:33:23.108Z,3.00
2018-07-26T19:35:51.400Z,3.10
2018-07-26T19:38:19.706Z,3.23
2018-07-26T19:40:48.152Z,3.33
2018-07-26T19:43:16.432Z,3.40
2018-07-26T19:45:44.957Z,2.77
2018-07-26T19:48:13.259Z,3.40
2018-07-26T19:50:41.602Z,3.53
2018-07-26T19:53:09.927Z,3.30
2018-07-26T19:55:38.316Z,3.23
2018-07-26T19:58:06.827Z,2.97
2018-07-26T20:00:35.203Z,3.43
2018-07-26T20:03:03.505Z,2.93
2018-07-26T20:05:31.963Z,3.50
2018-07-26T20:08:00.270Z,3.60
2018-07-26T20:10:28.717Z,3.13
2018-07-26T20:12:57.026Z,3.30
2018-07-26T20:15:26.323Z,3.63
2018-07-26T20:17:54.725Z,3.40
2018-07-26T20:20:23.044Z,3.40
2018-07-26T20:22:52.429Z,3.63
2018-07-26T20:25:20.819Z,3.17
2018-07-26T20:27:49.136Z,3.10
2018-07-26T20:30:17.456Z,3.27
2018-07-26T20:32:45.748Z,4.10
2018-07-26T20:35:14.088Z,3.40
2018-07-26T20:37:42.376Z,3.77
2018-07-26T20:40:11.261Z,4.00
2018-07-26T20:42:39.748Z,3.60
2018-07-26T20:45:09.073Z,3.80
2018-07-26T20:47:37.738Z,4.17
2018-07-26T20:50:06.808Z,3.83
2018-07-26T20:52:35.103Z,4.10
2018-07-26T20:55:04.373Z,4.10
2018-07-26T20:57:32.657Z,3.50
2018-07-26T21:00:00.971Z,4.00
2018-07-26T21:02:29.453Z,3.70
2018-07-26T21:04:58.219Z,4.87
2018-07-26T21:07:26.544Z,4.73
2018-07-26T21:09:54.991Z,3.67
2018-07-26T21:12:23.308Z,3.83
2018-07-26T21:14:51.608Z,4.00
2018-07-26T21:17:20.149Z,3.57
2018-07-26T21:19:48.457Z,4.00
2018-07-26T21:22:16.780Z,3.80
2018-07-26T21:24:45.114Z,3.77
2018-07-26T21:27:13.654Z,3.60
2018-07-26T21:29:42.009Z,4.40
2018-07-26T21:32:10.744Z,3.80
2018-07-26T21:34:39.046Z,3.70
2018-07-26T21:37:07.370Z,3.90
2018-07-26T21:39:35.669Z,3.63
2018-07-26T21:42:03.986Z,4.10
2018-07-26T21:44:32.315Z,4.00
2018-07-26T21:47:00.627Z,3.47
2018-07-26T21:49:28.911Z,4.30
2018-07-26T21:51:57.219Z,3.80
2018-07-26T21:54:25.558Z,3.83
2018-07-26T21:56:53.871Z,3.90
2018-07-26T21:59:22.182Z,3.57
2018-07-26T22:01:50.544Z,3.63
2018-07-26T22:04:18.934Z,3.50
2018-07-26T22:06:47.242Z,4.53
2018-07-26T22:09:15.580Z,4.10
2018-07-26T22:11:44.125Z,3.30
2018-07-26T22:14:12.464Z,4.27
2018-07-26T22:16:40.769Z,3.80
2018-07-26T22:19:09.140Z,3.20
2018-07-26T22:21:41.610Z,3.70
2018-07-26T22:24:09.940Z,3.17
2018-07-26T22:26:38.232Z,3.67
2018-07-26T22:29:06.895Z,2.83
2018-07-26T22:31:35.165Z,3.33
2018-07-26T22:34:03.554Z,3.97
2018-07-26T22:36:32.086Z,3.60
2018-07-26T22:39:00.613Z,4.17
2018-07-26T22:41:28.986Z,3.30
2018-07-26T22:43:57.307Z,4.10
2018-07-26T22:46:25.717Z,4.40
2018-07-26T22:48:54.277Z,3.40
2018-07-26T22:51:22.586Z,3.90
2018-07-26T22:53:50.948Z,3.37
2018-07-26T22:56:19.250Z,4.07
2018-07-26T22:58:47.629Z,3.43
2018-07-26T23:01:15.968Z,3.30
2018-07-26T23:03:44.293Z,4.23
2018-07-26T23:06:12.750Z,3.93
2018-07-26T23:08:41.109Z,3.87
2018-07-26T23:11:09.409Z,3.47
2018-07-26T23:13:37.900Z,3.30
2018-07-26T23:16:06.196Z,3.30
2018-07-26T23:18:34.966Z,4.30
2018-07-26T23:21:03.416Z,3.40
2018-07-26T23:23:31.732Z,3.90
2018-07-26T23:26:00.036Z,3.83
2018-07-26T23:28:28.481Z,3.90
2018-07-26T23:30:56.776Z,3.83
2018-07-26T23:33:25.124Z,3.77
2018-07-26T23:35:53.592Z,3.80
2018-07-26T23:38:21.919Z,3.77
2018-07-26T23:40:50.305Z,4.20
2018-07-26T23:43:18.700Z,4.20
2018-07-26T23:45:47.008Z,3.37
2018-07-26T23:48:15.869Z,3.87
2018-07-26T23:50:44.181Z,3.83
2018-07-26T23:53:12.545Z,4.00
2018-07-26T23:55:40.865Z,3.60
2018-07-26T23:58:09.161Z,3.87
